createdAt,value
2018-06-15T00:00:12.772Z,42.17
2018-06-15T00:02:52.813Z,45.70
2018-06-15T00:05:27.312Z,44.20
2018-06-15T00:08:01.921Z,40.00
2018-06-15T00:10:36.318Z,43.67
2018-06-15T00:13:10.926Z,40.87
2018-06-15T00:15:45.248Z,38.13
2018-06-15T00:18:19.931Z,36.13
2018-06-15T00:20:54.491Z,38.30
2018-06-15T00:23:29.260Z,38.90
2018-06-15T00:26:04.079Z,36.53
2018-06-15T00:28:38.989Z,39.43
2018-06-15T00:31:13.491Z,38.93
2018-06-15T00:33:47.873Z,37.43
2018-06-15T00:36:22.313Z,40.70
2018-06-15T00:38:56.716Z,40.70
2018-06-15T00:41:31.536Z,37.43
2018-06-15T00:44:06.276Z,41.33
2018-06-15T00:46:41.249Z,42.13
2018-06-15T00:49:15.770Z,32.77
2018-06-15T00:51:50.082Z,35.67
2018-06-15T00:54:24.632Z,34.93
2018-06-15T00:57:10.365Z,32.13
2018-06-15T00:59:45.079Z,34.23
2018-06-15T01:02:19.765Z,34.73
2018-06-15T01:04:54.213Z,30.43
2018-06-15T01:07:28.705Z,28.87
2018-06-15T01:10:03.269Z,27.33
2018-06-15T01:12:37.893Z,28.40
2018-06-15T01:15:12.449Z,29.20
2018-06-15T01:17:47.277Z,33.43
2018-06-15T01:20:21.724Z,30.87
2018-06-15T01:22:56.389Z,30.57
2018-06-15T01:25:31.096Z,32.73
2018-06-15T01:28:05.772Z,33.20
2018-06-15T01:30:40.320Z,29.90
2018-06-15T01:33:14.776Z,37.00
2018-06-15T01:35:49.274Z,31.83
2018-06-15T01:38:23.731Z,33.47
2018-06-15T01:40:58.328Z,32.30
2018-06-15T01:43:32.941Z,26.73
2018-06-15T01:49:15.276Z,29.67
2018-06-15T01:51:49.833Z,34.87
2018-06-15T01:54:24.353Z,30.17
2018-06-15T01:56:58.830Z,35.20
2018-06-15T01:59:33.377Z,31.83
2018-06-15T02:02:07.971Z,30.73
2018-06-15T02:04:42.384Z,29.10
2018-06-15T02:07:16.920Z,32.33
2018-06-15T02:09:51.836Z,28.13
2018-06-15T02:12:26.390Z,32.10
2018-06-15T02:15:00.768Z,33.43
2018-06-15T02:17:35.381Z,32.57
2018-06-15T02:20:09.712Z,34.47
2018-06-15T02:22:44.116Z,37.10
2018-06-15T02:25:18.544Z,40.10
2018-06-15T02:27:53.008Z,36.17
2018-06-15T02:30:27.824Z,32.47
2018-06-15T02:33:02.199Z,33.20
2018-06-15T02:35:39.802Z,38.60
2018-06-15T02:38:14.356Z,40.23
2018-06-15T02:40:48.971Z,35.40
2018-06-15T02:43:23.904Z,40.07
2018-06-15T02:45:58.323Z,34.97
2018-06-15T02:48:33.062Z,39.20
2018-06-15T02:51:07.839Z,36.60
2018-06-15T02:53:42.297Z,44.80
2018-06-15T02:56:16.892Z,35.13
2018-06-15T02:58:51.680Z,38.87
2018-06-15T03:01:26.173Z,41.10
2018-06-15T03:04:00.935Z,42.40
2018-06-15T03:06:35.484Z,37.33
2018-06-15T03:09:10.477Z,40.00
2018-06-15T03:11:44.964Z,35.40
2018-06-15T03:14:19.496Z,39.53
2018-06-15T03:16:53.972Z,35.03
2018-06-15T03:19:29.141Z,42.90
2018-06-15T03:22:03.524Z,40.27
2018-06-15T03:24:37.974Z,42.67
2018-06-15T03:27:12.516Z,37.73
2018-06-15T03:29:46.956Z,40.70
2018-06-15T03:32:21.532Z,39.73
2018-06-15T03:34:55.953Z,43.50
2018-06-15T03:37:30.453Z,41.40
2018-06-15T03:40:05.012Z,38.97
2018-06-15T03:42:39.701Z,48.73
2018-06-15T03:45:14.157Z,41.43
2018-06-15T03:47:48.900Z,44.57
2018-06-15T03:50:23.670Z,44.23
2018-06-15T03:52:58.198Z,48.50
2018-06-15T03:55:32.928Z,46.00
2018-06-15T03:58:07.797Z,44.53
2018-06-15T04:00:42.564Z,41.03
2018-06-15T04:03:17.347Z,43.37
2018-06-15T04:05:51.944Z,42.10
2018-06-15T04:08:26.822Z,43.57
2018-06-15T04:11:01.265Z,42.63
2018-06-15T04:13:36.012Z,42.37
2018-06-15T04:16:10.476Z,45.70
2018-06-15T04:18:44.999Z,54.27
2018-06-15T04:21:19.609Z,49.97
2018-06-15T04:23:54.172Z,44.80
2018-06-15T04:26:28.566Z,46.67
2018-06-15T04:29:02.987Z,44.03
2018-06-15T04:31:37.432Z,46.70
2018-06-15T04:34:12.041Z,44.93
2018-06-15T04:36:46.519Z,51.73
2018-06-15T04:39:21.281Z,45.60
2018-06-15T04:41:55.710Z,48.33
2018-06-15T04:44:30.350Z,46.60
2018-06-15T04:47:04.988Z,49.67
2018-06-15T04:49:40.276Z,42.17
2018-06-15T04:52:15.115Z,42.00
2018-06-15T04:54:50.349Z,40.63
2018-06-15T04:57:24.882Z,38.83
2018-06-15T05:00:00.317Z,39.90
2018-06-15T05:02:35.053Z,37.93
2018-06-15T05:05:09.753Z,39.80
2018-06-15T05:07:44.393Z,38.90
2018-06-15T05:10:19.116Z,40.73
2018-06-15T05:12:53.721Z,37.13
2018-06-15T05:15:28.373Z,37.17
2018-06-15T05:18:03.252Z,39.33
2018-06-15T05:20:37.640Z,37.73
2018-06-15T05:23:12.027Z,41.50
2018-06-15T05:25:46.725Z,36.47
2018-06-15T05:28:21.440Z,39.80
2018-06-15T05:30:56.168Z,36.27
2018-06-15T05:33:30.500Z,38.23
2018-06-15T05:36:05.041Z,35.73
2018-06-15T05:38:39.500Z,35.73
2018-06-15T05:41:13.974Z,36.77
2018-06-15T05:43:48.449Z,34.87
2018-06-15T05:46:23.066Z,34.27
2018-06-15T05:48:58.109Z,36.00
2018-06-15T05:51:32.861Z,33.93
2018-06-15T05:54:07.232Z,35.40
2018-06-15T05:56:41.584Z,37.07
2018-06-15T05:59:16.205Z,34.40
2018-06-15T06:01:50.703Z,38.10
2018-06-15T06:04:25.077Z,35.23
2018-06-15T06:06:59.724Z,35.13
2018-06-15T06:09:34.313Z,35.30
2018-06-15T06:12:08.840Z,37.47
2018-06-15T06:14:43.252Z,33.37
2018-06-15T06:17:17.981Z,27.77
2018-06-15T06:19:52.522Z,34.43
2018-06-15T06:22:27.220Z,35.83
2018-06-15T06:25:01.817Z,29.23
2018-06-15T06:27:36.445Z,32.70
2018-06-15T06:30:11.047Z,24.27
2018-06-15T06:32:45.649Z,24.77
2018-06-15T06:35:20.272Z,24.33
2018-06-15T06:37:55.116Z,24.97
2018-06-15T06:40:29.571Z,24.77
2018-06-15T06:43:04.073Z,27.37
2018-06-15T06:45:38.752Z,30.60
2018-06-15T06:48:13.592Z,26.00
2018-06-15T06:50:48.144Z,25.73
2018-06-15T06:53:22.704Z,25.60
2018-06-15T06:55:57.272Z,22.87
2018-06-15T06:58:31.780Z,21.43
2018-06-15T07:01:06.272Z,24.03
2018-06-15T07:03:40.791Z,21.93
2018-06-15T07:06:15.216Z,18.47
2018-06-15T07:08:49.721Z,17.53
2018-06-15T07:11:24.418Z,20.07
2018-06-15T07:13:58.848Z,16.20
2018-06-15T07:16:33.441Z,15.43
2018-06-15T07:19:07.796Z,17.37
2018-06-15T07:21:42.199Z,17.67
2018-06-15T07:24:16.732Z,17.10
2018-06-15T07:26:51.268Z,15.47
2018-06-15T07:29:25.660Z,16.53
2018-06-15T07:32:00.183Z,15.53
2018-06-15T07:34:34.616Z,17.63
2018-06-15T07:37:09.313Z,14.57
2018-06-15T07:39:43.861Z,16.37
2018-06-15T07:42:18.505Z,19.60
2018-06-15T07:44:53.189Z,15.57
2018-06-15T07:47:27.926Z,15.27
2018-06-15T07:50:02.541Z,11.10
2018-06-15T07:52:36.969Z,11.03
2018-06-15T07:55:11.452Z,11.23
2018-06-15T07:57:45.936Z,12.37
2018-06-15T08:00:20.495Z,14.30
2018-06-15T08:02:54.957Z,17.73
2018-06-15T08:05:29.564Z,15.27
2018-06-15T08:08:04.056Z,16.97
2018-06-15T08:10:38.592Z,16.93
2018-06-15T08:13:13.104Z,13.20
2018-06-15T08:15:47.723Z,12.83
2018-06-15T08:18:22.045Z,12.87
2018-06-15T08:20:56.617Z,14.50
2018-06-15T08:23:31.124Z,10.70
2018-06-15T08:26:05.805Z,9.57
2018-06-15T08:28:40.408Z,9.33
2018-06-15T08:31:15.061Z,10.17
2018-06-15T08:33:49.695Z,10.00
2018-06-15T08:36:24.049Z,9.70
2018-06-15T08:38:58.437Z,9.73
2018-06-15T08:41:32.965Z,10.97
2018-06-15T08:44:07.481Z,8.57
2018-06-15T08:46:42.033Z,8.73
2018-06-15T08:49:16.517Z,10.57
2018-06-15T08:51:50.918Z,7.77
2018-06-15T08:54:25.728Z,7.57
2018-06-15T08:57:05.139Z,9.97
2018-06-15T08:59:39.531Z,8.30
2018-06-15T09:02:13.886Z,8.10
2018-06-15T09:04:48.700Z,6.60
2018-06-15T09:07:23.419Z,6.90
2018-06-15T09:09:58.064Z,5.33
2018-06-15T09:12:32.571Z,5.67
2018-06-15T09:15:06.912Z,6.37
2018-06-15T09:17:41.309Z,9.23
2018-06-15T09:20:15.719Z,9.03
2018-06-15T09:22:50.428Z,9.13
2018-06-15T09:25:25.061Z,9.87
2018-06-15T09:27:59.567Z,10.40
2018-06-15T09:30:34.005Z,9.90
2018-06-15T09:33:08.370Z,9.63
2018-06-15T09:35:42.936Z,9.77
2018-06-15T09:38:17.486Z,9.97
2018-06-15T09:40:52.145Z,10.13
2018-06-15T09:43:26.840Z,11.50
2018-06-15T09:46:01.397Z,11.23
2018-06-15T09:48:35.904Z,11.20
2018-06-15T09:51:10.718Z,12.80
2018-06-15T09:53:45.336Z,12.77
2018-06-15T09:56:19.920Z,13.03
2018-06-15T09:58:56.038Z,13.90
2018-06-15T10:01:30.777Z,13.37
2018-06-15T10:04:05.201Z,15.30
2018-06-15T10:06:39.909Z,14.73
2018-06-15T10:09:14.384Z,13.00
2018-06-15T10:11:48.878Z,12.70
2018-06-15T10:14:23.254Z,12.30
2018-06-15T10:16:57.773Z,11.30
2018-06-15T10:19:32.545Z,10.60
2018-06-15T10:22:07.118Z,10.60
2018-06-15T10:24:41.479Z,12.37
2018-06-15T10:27:15.920Z,11.13
2018-06-15T10:29:50.383Z,12.30
2018-06-15T10:32:24.773Z,12.37
2018-06-15T10:34:59.236Z,12.30
2018-06-15T10:37:33.692Z,11.47
2018-06-15T10:40:08.148Z,12.77
2018-06-15T10:42:42.903Z,10.00
2018-06-15T10:45:17.456Z,11.57
2018-06-15T10:47:52.084Z,10.60
2018-06-15T10:50:26.724Z,8.37
2018-06-15T10:53:01.200Z,8.60
2018-06-15T10:55:35.769Z,9.43
2018-06-15T10:58:10.252Z,9.47
2018-06-15T11:00:44.716Z,9.40
2018-06-15T11:03:19.085Z,9.60
2018-06-15T11:05:53.932Z,11.13
2018-06-15T11:08:28.768Z,9.17
2018-06-15T11:11:03.428Z,7.53
2018-06-15T11:13:38.009Z,9.57
2018-06-15T11:16:12.941Z,8.47
2018-06-15T11:18:47.899Z,9.03
2018-06-15T11:21:25.424Z,9.57
2018-06-15T11:24:00.092Z,7.93
2018-06-15T11:26:44.101Z,7.13
2018-06-15T11:29:18.481Z,6.73
2018-06-15T11:31:53.063Z,5.70
2018-06-15T11:34:27.952Z,6.97
2018-06-15T11:37:02.513Z,6.17
2018-06-15T11:39:36.896Z,6.20
2018-06-15T11:42:11.496Z,6.70
2018-06-15T11:44:45.832Z,5.20
2018-06-15T11:47:20.564Z,5.67
2018-06-15T11:49:55.150Z,5.63
2018-06-15T11:52:29.669Z,6.03
2018-06-15T11:55:04.233Z,6.33
2018-06-15T11:57:38.649Z,6.00
2018-06-15T12:00:13.365Z,6.63
2018-06-15T12:02:48.020Z,5.90
2018-06-15T12:05:22.496Z,6.47
2018-06-15T12:07:56.926Z,5.77
2018-06-15T12:10:31.292Z,4.97
2018-06-15T12:13:05.640Z,6.33
2018-06-15T12:15:40.105Z,6.30
2018-06-15T12:18:14.652Z,6.13
2018-06-15T12:20:49.092Z,6.90
2018-06-15T12:23:23.548Z,7.10
2018-06-15T12:25:58.298Z,6.80
2018-06-15T12:28:32.874Z,6.20
2018-06-15T12:31:07.877Z,8.00
2018-06-15T12:33:42.400Z,7.60
2018-06-15T12:36:16.778Z,7.93
2018-06-15T12:38:51.244Z,7.17
2018-06-15T12:41:25.781Z,7.30
2018-06-15T12:44:00.173Z,7.23
2018-06-15T12:46:34.537Z,5.70
2018-06-15T12:49:09.006Z,6.60
2018-06-15T12:51:43.557Z,6.80
2018-06-15T12:54:17.954Z,7.40
2018-06-15T12:57:15.099Z,8.23
2018-06-15T12:59:49.744Z,7.03
2018-06-15T13:02:24.308Z,8.10
2018-06-15T13:04:59.048Z,6.03
2018-06-15T13:07:33.893Z,6.80
2018-06-15T13:10:08.405Z,5.90
2018-06-15T13:12:43.265Z,7.07
2018-06-15T13:15:17.721Z,4.83
2018-06-15T13:17:52.179Z,6.47
2018-06-15T13:20:26.784Z,6.30
2018-06-15T13:23:01.245Z,6.93
2018-06-15T13:25:35.608Z,5.60
2018-06-15T13:28:09.901Z,7.20
2018-06-15T13:30:44.511Z,6.20
2018-06-15T13:33:18.865Z,7.17
2018-06-15T13:35:53.449Z,7.90
2018-06-15T13:38:28.188Z,7.63
2018-06-15T13:41:02.848Z,4.97
2018-06-15T13:43:37.269Z,4.77
2018-06-15T13:46:12.149Z,5.40
2018-06-15T13:48:46.628Z,4.90
2018-06-15T13:51:21.036Z,5.30
2018-06-15T13:53:55.480Z,4.70
2018-06-15T13:56:30.093Z,4.87
2018-06-15T13:59:04.401Z,5.47
2018-06-15T14:01:38.959Z,4.77
2018-06-15T14:04:13.803Z,4.43
2018-06-15T14:06:48.399Z,4.90
2018-06-15T14:09:22.867Z,5.03
2018-06-15T14:11:57.500Z,5.63
2018-06-15T14:14:32.056Z,5.30
2018-06-15T14:17:06.524Z,6.27
2018-06-15T14:19:40.852Z,7.83
2018-06-15T14:22:15.309Z,6.50
2018-06-15T14:24:49.760Z,6.17
2018-06-15T14:27:24.410Z,6.13
2018-06-15T14:29:58.927Z,6.10
2018-06-15T14:32:33.652Z,5.20
2018-06-15T14:35:08.265Z,6.27
2018-06-15T14:37:43.033Z,9.23
2018-06-15T14:40:17.545Z,5.27
2018-06-15T14:42:52.172Z,5.67
2018-06-15T14:45:26.645Z,6.37
2018-06-15T14:48:01.333Z,5.33
2018-06-15T14:50:35.908Z,5.27
2018-06-15T14:53:10.221Z,4.10
2018-06-15T14:55:44.639Z,4.57
2018-06-15T14:58:19.061Z,3.77
2018-06-15T15:00:53.592Z,3.73
2018-06-15T15:03:27.945Z,4.03
2018-06-15T15:06:02.432Z,3.87
2018-06-15T15:08:37.004Z,4.03
2018-06-15T15:11:11.440Z,3.70
2018-06-15T15:13:46.050Z,4.03
2018-06-15T15:16:20.968Z,3.77
2018-06-15T15:18:55.637Z,3.97
2018-06-15T15:21:30.081Z,7.13
2018-06-15T15:24:04.480Z,3.87
2018-06-15T15:26:39.032Z,5.37
2018-06-15T15:29:13.722Z,4.50
2018-06-15T15:31:48.209Z,4.20
2018-06-15T15:34:22.668Z,6.03
2018-06-15T15:36:57.148Z,4.27
2018-06-15T15:39:31.589Z,4.80
2018-06-15T15:42:06.241Z,4.27
2018-06-15T15:44:40.742Z,5.17
2018-06-15T15:47:15.457Z,4.33
2018-06-15T15:49:49.829Z,3.90
2018-06-15T15:52:24.388Z,5.73
2018-06-15T15:54:58.829Z,3.13
2018-06-15T15:57:33.348Z,4.27
2018-06-15T16:00:07.832Z,4.53
2018-06-15T16:02:42.157Z,3.13
2018-06-15T16:05:16.649Z,5.57
2018-06-15T16:07:51.169Z,4.93
2018-06-15T16:10:25.759Z,3.20
2018-06-15T16:13:00.224Z,4.17
2018-06-15T16:15:34.661Z,3.70
2018-06-15T16:18:09.240Z,4.80
2018-06-15T16:20:43.642Z,6.90
2018-06-15T16:23:18.345Z,3.23
2018-06-15T16:25:52.970Z,3.43
2018-06-15T16:28:27.537Z,4.73
2018-06-15T16:31:02.292Z,4.37
2018-06-15T16:33:36.712Z,3.87
2018-06-15T16:36:11.259Z,4.50
2018-06-15T16:38:45.625Z,4.93
2018-06-15T16:41:19.972Z,6.07
2018-06-15T16:43:54.504Z,4.20
2018-06-15T16:46:28.949Z,3.60
2018-06-15T16:49:03.689Z,5.47
2018-06-15T16:51:38.504Z,4.93
2018-06-15T16:54:13.049Z,3.70
2018-06-15T16:56:47.997Z,4.20
2018-06-15T16:59:22.569Z,5.00
2018-06-15T17:01:56.945Z,5.73
2018-06-15T17:04:31.254Z,4.80
2018-06-15T17:07:05.908Z,3.30
2018-06-15T17:09:40.427Z,3.50
2018-06-15T17:12:14.809Z,4.77
2018-06-15T17:14:49.618Z,3.80
2018-06-15T17:17:24.064Z,3.93
2018-06-15T17:19:58.837Z,3.10
2018-06-15T17:22:33.393Z,5.77
2018-06-15T17:25:07.873Z,6.33
2018-06-15T17:27:42.364Z,3.90
2018-06-15T17:30:16.761Z,5.30
2018-06-15T17:32:51.387Z,2.90
2018-06-15T17:35:26.176Z,4.23
2018-06-15T17:38:00.783Z,2.80
2018-06-15T17:40:35.217Z,4.83
2018-06-15T17:43:10.049Z,4.43
2018-06-15T17:45:44.425Z,3.17
2018-06-15T17:48:19.004Z,4.00
2018-06-15T17:50:53.532Z,5.23
2018-06-15T17:53:28.105Z,2.80
2018-06-15T17:56:02.636Z,2.27
2018-06-15T17:58:37.141Z,8.67
2018-06-15T18:01:11.833Z,5.17
2018-06-15T18:03:46.364Z,3.73
2018-06-15T18:06:20.889Z,5.83
2018-06-15T18:08:55.546Z,2.50
2018-06-15T18:11:30.036Z,4.03
2018-06-15T18:14:04.468Z,3.43
2018-06-15T18:16:38.897Z,3.47
2018-06-15T18:19:13.429Z,4.77
2018-06-15T18:21:48.128Z,5.87
2018-06-15T18:24:22.766Z,9.83
2018-06-15T18:26:57.297Z,5.47
2018-06-15T18:29:31.831Z,8.53
2018-06-15T18:32:06.919Z,7.57
2018-06-15T18:34:41.637Z,4.40
2018-06-15T18:37:16.160Z,6.33
2018-06-15T18:39:50.760Z,5.70
2018-06-15T18:42:25.362Z,5.00
2018-06-15T18:44:59.841Z,6.33
2018-06-15T18:47:34.508Z,5.30
2018-06-15T18:50:08.997Z,4.70
2018-06-15T18:52:43.572Z,11.97
2018-06-15T18:55:18.186Z,7.17
2018-06-15T18:57:59.421Z,6.57
2018-06-15T19:00:34.061Z,7.67
2018-06-15T19:03:08.439Z,8.70
2018-06-15T19:05:43.264Z,6.13
2018-06-15T19:08:17.596Z,7.60
2018-06-15T19:10:52.360Z,7.27
2018-06-15T19:13:26.724Z,4.40
2018-06-15T19:16:01.389Z,3.83
2018-06-15T19:18:35.761Z,7.60
2018-06-15T19:21:10.486Z,8.93
2018-06-15T19:23:45.401Z,5.97
2018-06-15T19:26:20.452Z,12.23
2018-06-15T19:28:54.946Z,7.13
2018-06-15T19:31:29.420Z,4.70
2018-06-15T19:34:03.945Z,6.83
2018-06-15T19:36:38.509Z,9.00
2018-06-15T19:39:12.974Z,9.40
2018-06-15T19:41:47.404Z,9.07
2018-06-15T19:44:21.908Z,7.10
2018-06-15T19:46:56.536Z,8.97
2018-06-15T19:49:31.225Z,4.50
2018-06-15T19:52:06.288Z,5.93
2018-06-15T19:54:40.775Z,6.73
2018-06-15T19:57:15.540Z,8.00
2018-06-15T19:59:50.124Z,8.90
2018-06-15T20:02:24.524Z,6.10
2018-06-15T20:04:58.998Z,9.53
2018-06-15T20:07:33.533Z,5.40
2018-06-15T20:10:08.090Z,7.50
2018-06-15T20:12:42.537Z,7.47
2018-06-15T20:15:17.112Z,5.37
2018-06-15T20:17:51.772Z,5.70
2018-06-15T20:20:26.185Z,7.40
2018-06-15T20:23:00.712Z,9.80
2018-06-15T20:25:35.133Z,8.53
2018-06-15T20:28:09.772Z,7.97
2018-06-15T20:30:44.398Z,6.87
2018-06-15T20:33:18.952Z,7.17
2018-06-15T20:35:53.495Z,6.50
2018-06-15T20:38:27.927Z,7.83
2018-06-15T20:41:02.270Z,6.80
2018-06-15T20:43:36.683Z,6.23
2018-06-15T20:46:11.037Z,9.77
2018-06-15T20:48:45.764Z,5.07
2018-06-15T20:51:20.166Z,7.73
2018-06-15T20:53:54.564Z,9.10
2018-06-15T20:56:29.389Z,4.73
2018-06-15T20:59:03.908Z,5.53
2018-06-15T21:01:38.321Z,5.43
2018-06-15T21:04:13.144Z,7.97
2018-06-15T21:06:47.732Z,9.37
2018-06-15T21:09:22.113Z,8.70
2018-06-15T21:11:56.732Z,8.33
2018-06-15T21:14:31.262Z,8.90
2018-06-15T21:17:06.028Z,10.33
2018-06-15T21:19:40.761Z,12.23
2018-06-15T21:22:15.869Z,6.10
2018-06-15T21:24:50.761Z,6.70
2018-06-15T21:27:25.180Z,8.87
2018-06-15T21:29:59.972Z,9.20
2018-06-15T21:32:34.657Z,7.37
2018-06-15T21:35:09.228Z,6.03
2018-06-15T21:37:43.735Z,7.50
2018-06-15T21:40:18.327Z,9.53
2018-06-15T21:42:53.053Z,4.33
2018-06-15T21:45:27.396Z,9.43
2018-06-15T21:48:01.737Z,7.57
2018-06-15T21:50:36.121Z,9.53
2018-06-15T21:53:10.574Z,7.57
2018-06-15T21:55:45.084Z,8.57
2018-06-15T21:58:19.717Z,11.80
2018-06-15T22:00:54.204Z,7.10
2018-06-15T22:03:28.526Z,6.30
2018-06-15T22:06:02.893Z,7.50
2018-06-15T22:08:37.855Z,7.40
2018-06-15T22:11:12.603Z,7.07
2018-06-15T22:13:47.065Z,8.70
2018-06-15T22:16:21.522Z,8.07
2018-06-15T22:18:56.016Z,7.03
2018-06-15T22:21:30.538Z,7.10
2018-06-15T22:24:05.007Z,7.30
2018-06-15T22:26:39.369Z,7.47
2018-06-15T22:29:14.732Z,6.90
2018-06-15T22:31:49.292Z,7.90
2018-06-15T22:34:23.751Z,5.67
2018-06-15T22:36:58.180Z,8.87
2018-06-15T22:39:32.677Z,9.33
2018-06-15T22:42:07.061Z,8.90
2018-06-15T22:44:44.272Z,6.13
2018-06-15T22:47:18.696Z,9.33
2018-06-15T22:49:53.255Z,10.57
2018-06-15T22:52:27.672Z,8.10
2018-06-15T22:55:02.305Z,7.73
2018-06-15T22:57:36.845Z,6.17
2018-06-15T23:00:12.124Z,8.40
2018-06-15T23:02:46.911Z,7.27
2018-06-15T23:05:21.533Z,6.13
2018-06-15T23:07:55.884Z,5.80
2018-06-15T23:10:30.289Z,7.20
2018-06-15T23:13:05.147Z,7.73
2018-06-15T23:15:39.592Z,11.40
2018-06-15T23:18:14.004Z,8.80
2018-06-15T23:20:48.837Z,9.20
2018-06-15T23:23:23.328Z,6.63
2018-06-15T23:25:57.678Z,7.70
2018-06-15T23:28:32.172Z,10.47
2018-06-15T23:31:06.564Z,6.37
2018-06-15T23:33:41.095Z,7.93
2018-06-15T23:36:15.471Z,7.50
2018-06-15T23:38:49.880Z,8.10
2018-06-15T23:41:24.718Z,7.17
2018-06-15T23:43:59.284Z,6.20
2018-06-15T23:46:33.728Z,9.10
2018-06-15T23:49:08.267Z,12.43
2018-06-15T23:51:42.632Z,12.53
2018-06-15T23:54:17.145Z,14.80
2018-06-15T23:56:51.493Z,8.33
2018-06-15T23:59:25.872Z,7.83
